Time;durP1;ratioP1;P1;durP2;ratioP2;P2;SDS_P1;SDS_P2;PMS_P1;PMS_P2;Temp;Humidity;BMP_temperature;BMP_pressure;BME280_temperature;BME280_humidity;BME280_pressure;Samples;Min_cycle;Max_cycle;Signal;HPM_P1;HPM_P2
2022/09/20 00:04:11;;;;;;;0.75;0.60;;;;;;;;;;10497954;28;20051;-77
2022/09/20 00:09:20;;;;;;;3.70;1.00;;;;;;;;;;10498418;28;20090;-77
2022/09/20 00:14:29;;;;;;;2.88;0.55;;;;;;;;;;10495419;28;20064;-76
2022/09/20 00:19:35;;;;;;;0.20;0.20;;;;;;;;;;10504736;28;20045;-76
2022/09/20 00:24:40;;;;;;;1.75;1.00;;;;;;;;;;10515710;28;20039;-76
2022/09/20 00:29:55;;;;;;;0.65;0.52;;;;;;;;;;10518497;28;20405;-77
2022/09/20 00:35:12;;;;;;;3.97;0.80;;;;;;;;;;10524190;28;20059;-77
2022/09/20 00:40:21;;;;;;;1.42;1.00;;;;;;;;;;10522297;28;20504;-77
2022/09/20 00:45:27;;;;;;;1.75;0.80;;;;;;;;;;10505284;28;20043;-76
2022/09/20 00:50:36;;;;;;;0.60;0.38;;;;;;;;;;10500563;28;20552;-76
2022/09/20 00:55:45;;;;;;;1.05;0.57;;;;;;;;;;10482107;28;20041;-76
2022/09/20 01:00:57;;;;;;;0.70;0.70;;;;;;;;;;10492406;28;20121;-76
2022/09/20 01:06:07;;;;;;;0.30;0.30;;;;;;;;;;10505906;28;20418;-76
2022/09/20 01:11:13;;;;;;;2.30;0.68;;;;;;;;;;10500454;28;20440;-75
2022/09/20 01:16:23;;;;;;;2.35;1.05;;;;;;;;;;10492981;28;20052;-76
2022/09/20 01:21:31;;;;;;;0.82;0.60;;;;;;;;;;10504908;28;20040;-76
2022/09/20 01:26:42;;;;;;;2.05;0.98;;;;;;;;;;10509649;28;20036;-77
2022/09/20 01:31:52;;;;;;;1.13;0.68;;;;;;;;;;10518912;28;20051;-78
2022/09/20 01:37:11;;;;;;;3.20;1.45;;;;;;;;;;10474772;28;20127;-77
2022/09/20 01:42:19;;;;;;;16.45;2.38;;;;;;;;;;10514823;28;20044;-77
2022/09/20 01:47:28;;;;;;;1.85;0.82;;;;;;;;;;10500877;28;20040;-77
2022/09/20 01:53:05;;;;;;;2.05;1.30;;;;;;;;;;10510470;28;20040;-78
2022/09/20 01:58:22;;;;;;;4.00;1.08;;;;;;;;;;10502846;28;20060;-77
2022/09/20 02:03:51;;;;;;;7.43;1.80;;;;;;;;;;10506535;28;20032;-78
2022/09/20 02:09:16;;;;;;;2.33;0.85;;;;;;;;;;10479772;28;20148;-77
2022/09/20 02:14:48;;;;;;;2.72;1.25;;;;;;;;;;10497595;28;20036;-76
2022/09/20 02:20:08;;;;;;;1.83;0.88;;;;;;;;;;10527185;28;20394;-77
2022/09/20 02:25:38;;;;;;;0.68;0.52;;;;;;;;;;10510615;28;20349;-76
2022/09/20 02:30:54;;;;;;;0.95;0.75;;;;;;;;;;10468753;28;20048;-76
2022/09/20 02:36:22;;;;;;;1.38;0.70;;;;;;;;;;10506024;28;20090;-76
2022/09/20 02:41:28;;;;;;;;;;;;;;;;;;10513398;28;20044;-75
2022/09/20 02:46:42;;;;;;;4.63;1.17;;;;;;;;;;10526744;28;19928;-76
2022/09/20 02:51:58;;;;;;;1.98;0.70;;;;;;;;;;10494099;28;20072;-77
2022/09/20 02:57:09;;;;;;;8.27;2.05;;;;;;;;;;10522962;28;20058;-78
2022/09/20 03:02:34;;;;;;;3.30;1.08;;;;;;;;;;10514591;28;20450;-77
2022/09/20 03:07:55;;;;;;;2.38;1.00;;;;;;;;;;10504566;28;20496;-79
2022/09/20 03:13:11;;;;;;;3.88;1.25;;;;;;;;;;10520995;28;20475;-78
2022/09/20 03:18:18;;;;;;;0.50;0.47;;;;;;;;;;10517484;28;20453;-78
2022/09/20 03:23:47;;;;;;;0.85;0.73;;;;;;;;;;10515582;28;20060;-76
2022/09/20 03:29:04;;;;;;;1.60;0.85;;;;;;;;;;10530072;28;20039;-77
2022/09/20 03:34:20;;;;;;;2.78;1.33;;;;;;;;;;10486027;28;20157;-77
2022/09/20 03:39:34;;;;;;;2.42;1.20;;;;;;;;;;10509892;28;20044;-78
2022/09/20 03:44:39;;;;;;;;;;;;;;;;;;10502217;28;20078;-76
2022/09/20 03:49:54;;;;;;;0.88;0.52;;;;;;;;;;10515818;28;20389;-77
2022/09/20 03:55:22;;;;;;;2.40;1.38;;;;;;;;;;10524182;28;20103;-76
2022/09/20 04:00:32;;;;;;;2.60;1.40;;;;;;;;;;10498986;28;20139;-77
2022/09/20 04:05:44;;;;;;;2.55;1.52;;;;;;;;;;10503758;28;20100;-76
2022/09/20 04:11:00;;;;;;;1.60;1.05;;;;;;;;;;10509433;28;20550;-76
2022/09/20 04:16:12;;;;;;;3.38;1.63;;;;;;;;;;10521119;28;20096;-76
2022/09/20 04:21:22;;;;;;;4.18;1.50;;;;;;;;;;10523313;28;20452;-76
2022/09/20 04:26:36;;;;;;;5.60;1.58;;;;;;;;;;10530866;28;20040;-75
2022/09/20 04:31:52;;;;;;;1.73;1.27;;;;;;;;;;10525737;28;20060;-78
2022/09/20 04:37:03;;;;;;;3.75;1.40;;;;;;;;;;10525870;28;20369;-76
2022/09/20 04:42:23;;;;;;;2.25;1.27;;;;;;;;;;10522546;28;20036;-77
2022/09/20 04:47:47;;;;;;;2.13;1.60;;;;;;;;;;10504221;28;20044;-77
2022/09/20 04:53:24;;;;;;;4.90;1.45;;;;;;;;;;10498515;28;20480;-77
2022/09/20 04:58:39;;;;;;;3.65;1.60;;;;;;;;;;10513278;28;20036;-78
2022/09/20 05:04:13;;;;;;;3.72;1.50;;;;;;;;;;10494602;28;20067;-78
2022/09/20 05:09:36;;;;;;;4.70;1.50;;;;;;;;;;10520224;28;20887;-76
2022/09/20 05:14:57;;;;;;;2.85;1.55;;;;;;;;;;10480741;28;20482;-77
2022/09/20 05:20:39;;;;;;;5.03;1.40;;;;;;;;;;10504155;28;20185;-77
2022/09/20 05:25:59;;;;;;;0.40;0.40;;;;;;;;;;10521799;28;20039;-77
2022/09/20 05:31:08;;;;;;;4.80;1.70;;;;;;;;;;10490120;28;20083;-77
2022/09/20 05:36:16;;;;;;;3.95;1.30;;;;;;;;;;10492308;28;20036;-76
2022/09/20 05:41:36;;;;;;;4.40;1.00;;;;;;;;;;10499090;28;20032;-77
2022/09/20 05:46:47;;;;;;;4.65;1.88;;;;;;;;;;10499801;28;20047;-76
2022/09/20 05:52:00;;;;;;;3.28;1.80;;;;;;;;;;10505167;28;20517;-78
2022/09/20 05:57:14;;;;;;;7.32;2.25;;;;;;;;;;10512765;28;20051;-76
2022/09/20 06:02:23;;;;;;;5.80;2.00;;;;;;;;;;10513220;28;20473;-76
2022/09/20 06:07:32;;;;;;;4.35;1.48;;;;;;;;;;10501561;28;20051;-76
2022/09/20 06:12:52;;;;;;;1.58;0.88;;;;;;;;;;10506855;28;20117;-80
2022/09/20 06:18:09;;;;;;;5.70;1.80;;;;;;;;;;10495735;28;20040;-79
2022/09/20 06:23:24;;;;;;;2.17;1.52;;;;;;;;;;10484909;28;20036;-76
2022/09/20 06:28:33;;;;;;;4.95;2.00;;;;;;;;;;10493929;28;20036;-78
2022/09/20 06:33:46;;;;;;;3.17;1.63;;;;;;;;;;10504760;28;20462;-76
2022/09/20 06:44:24;;;;;;;7.35;1.80;;;;;;;;;;10503445;28;20473;-76
2022/09/20 06:49:34;;;;;;;5.20;1.95;;;;;;;;;;10507312;28;20105;-76
2022/09/20 06:54:44;;;;;;;3.08;1.70;;;;;;;;;;10519748;28;20051;-75
2022/09/20 06:59:54;;;;;;;2.25;1.48;;;;;;;;;;10506348;28;20046;-77
2022/09/20 07:05:06;;;;;;;4.28;2.10;;;;;;;;;;10501797;28;20036;-76
2022/09/20 07:10:10;;;;;;;6.57;2.45;;;;;;;;;;10486195;28;20052;-75
2022/09/20 07:15:21;;;;;;;4.70;1.98;;;;;;;;;;10516822;28;20130;-76
2022/09/20 07:20:37;;;;;;;5.05;1.38;;;;;;;;;;10500943;28;20040;-78
2022/09/20 07:25:46;;;;;;;5.90;2.53;;;;;;;;;;10508002;28;20055;-78
2022/09/20 07:30:54;;;;;;;8.32;2.55;;;;;;;;;;10500525;28;20132;-76
2022/09/20 07:36:04;;;;;;;5.28;2.08;;;;;;;;;;10520724;28;20098;-77
2022/09/20 07:41:11;;;;;;;6.20;2.03;;;;;;;;;;10487112;28;20135;-77
2022/09/20 07:46:22;;;;;;;3.38;1.73;;;;;;;;;;10504088;28;20048;-77
2022/09/20 07:51:29;;;;;;;4.53;1.98;;;;;;;;;;10510431;28;20047;-77
2022/09/20 07:56:36;;;;;;;6.07;1.70;;;;;;;;;;10505740;28;20441;-76
2022/09/20 08:01:53;;;;;;;7.28;2.80;;;;;;;;;;10498317;28;20063;-76
2022/09/20 08:07:00;;;;;;;8.50;3.05;;;;;;;;;;10517124;28;20036;-78
2022/09/20 08:12:04;;;;;;;6.13;2.47;;;;;;;;;;10517649;28;20108;-78
2022/09/20 08:17:35;;;;;;;8.55;2.67;;;;;;;;;;10512253;28;20063;-77
2022/09/20 08:22:46;;;;;;;10.38;3.22;;;;;;;;;;10503941;28;20144;-77
2022/09/20 08:28:09;;;;;;;7.05;2.75;;;;;;;;;;10497373;28;20155;-76
2022/09/20 08:33:15;;;;;;;6.65;2.30;;;;;;;;;;10506410;28;20040;-78
2022/09/20 08:38:30;;;;;;;5.18;2.42;;;;;;;;;;10510792;28;20029;-77
2022/09/20 08:44:10;;;;;;;6.65;2.90;;;;;;;;;;10496772;28;20280;-79
2022/09/20 08:49:19;;;;;;;7.22;3.10;;;;;;;;;;10512159;28;20052;-76
2022/09/20 08:54:32;;;;;;;5.20;3.15;;;;;;;;;;10498620;28;20127;-78
2022/09/20 08:59:40;;;;;;;10.10;3.47;;;;;;;;;;10513650;28;20047;-76
2022/09/20 09:04:47;;;;;;;5.30;3.45;;;;;;;;;;10506297;28;20598;-77
2022/09/20 09:10:00;;;;;;;10.57;3.38;;;;;;;;;;10500432;28;20101;-77
2022/09/20 09:15:07;;;;;;;7.20;3.28;;;;;;;;;;10501926;28;20112;-76
2022/09/20 09:20:24;;;;;;;7.22;3.33;;;;;;;;;;10508615;28;20040;-77
2022/09/20 09:25:38;;;;;;;7.97;3.75;;;;;;;;;;10501534;28;20139;-76
2022/09/20 09:30:43;;;;;;;7.63;3.33;;;;;;;;;;10492491;28;20052;-75
2022/09/20 09:35:55;;;;;;;3.30;1.30;;;;;;;;;;10493724;28;20480;-76
2022/09/20 09:41:04;;;;;;;11.57;5.28;;;;;;;;;;10495856;28;20127;-77
2022/09/20 09:46:20;;;;;;;6.82;3.00;;;;;;;;;;10517488;28;20490;-76
2022/09/20 09:51:27;;;;;;;6.63;3.00;;;;;;;;;;10501579;28;20470;-77
2022/09/20 09:57:01;;;;;;;7.80;3.08;;;;;;;;;;10516367;28;20040;-77
2022/09/20 10:02:16;;;;;;;5.85;2.10;;;;;;;;;;10512324;28;20155;-76
2022/09/20 10:07:27;;;;;;;4.80;2.00;;;;;;;;;;10499106;28;20058;-77
2022/09/20 10:18:18;;;;;;;5.03;2.15;;;;;;;;;;10550211;27;20486;-79
2022/09/20 10:23:28;;;;;;;4.72;2.00;;;;;;;;;;10521140;28;20075;-78
2022/09/20 10:28:56;;;;;;;4.13;1.52;;;;;;;;;;10523394;28;20047;-77
2022/09/20 10:34:16;;;;;;;5.85;1.75;;;;;;;;;;10519209;28;20039;-79
2022/09/20 10:39:24;;;;;;;2.03;1.50;;;;;;;;;;10515596;28;20042;-79
2022/09/20 10:44:39;;;;;;;4.07;2.10;;;;;;;;;;10517930;28;20047;-76
2022/09/20 10:49:42;;;;;;;6.03;1.67;;;;;;;;;;10524203;28;20040;-77
2022/09/20 10:55:03;;;;;;;5.15;1.70;;;;;;;;;;10522461;28;20274;-77
2022/09/20 11:00:11;;;;;;;3.83;1.80;;;;;;;;;;10520983;28;20076;-76
2022/09/20 11:05:21;;;;;;;4.32;2.00;;;;;;;;;;10526003;28;20347;-78
2022/09/20 11:10:29;;;;;;;5.35;2.00;;;;;;;;;;10528982;28;20038;-77
2022/09/20 11:15:42;;;;;;;5.35;2.15;;;;;;;;;;10516216;28;20033;-78
2022/09/20 11:20:46;;;;;;;6.68;2.38;;;;;;;;;;10522749;28;20123;-77
2022/09/20 11:25:52;;;;;;;4.20;2.30;;;;;;;;;;10512384;28;20037;-78
2022/09/20 11:30:59;;;;;;;3.33;1.33;;;;;;;;;;10489060;28;20045;-78
2022/09/20 11:36:03;;;;;;;7.30;2.15;;;;;;;;;;10485567;28;20098;-79
2022/09/20 11:41:11;;;;;;;6.47;1.65;;;;;;;;;;10489144;28;20033;-78
2022/09/20 11:46:19;;;;;;;4.60;1.80;;;;;;;;;;10487042;28;20041;-77
2022/09/20 11:51:30;;;;;;;2.95;1.27;;;;;;;;;;10494504;28;20040;-77
2022/09/20 11:56:34;;;;;;;2.78;1.58;;;;;;;;;;10485940;28;20076;-78
2022/09/20 12:01:38;;;;;;;3.70;1.60;;;;;;;;;;10486169;28;20108;-78
2022/09/20 12:06:41;;;;;;;5.07;1.55;;;;;;;;;;10489921;28;20037;-77
2022/09/20 12:11:46;;;;;;;3.92;1.50;;;;;;;;;;10493280;28;20119;-78
2022/09/20 12:16:49;;;;;;;6.70;1.80;;;;;;;;;;10492154;28;20058;-78
2022/09/20 12:22:11;;;;;;;4.53;1.55;;;;;;;;;;10488869;28;20058;-78
2022/09/20 12:27:42;;;;;;;2.20;1.60;;;;;;;;;;10490875;28;20047;-77
2022/09/20 12:32:46;;;;;;;3.80;1.77;;;;;;;;;;10494917;28;20036;-77
2022/09/20 12:37:49;;;;;;;3.40;1.40;;;;;;;;;;10502386;28;20052;-77
2022/09/20 12:42:57;;;;;;;2.83;1.58;;;;;;;;;;10489288;28;20083;-77
2022/09/20 12:47:59;;;;;;;3.05;1.90;;;;;;;;;;10494176;28;20408;-77
2022/09/20 12:53:03;;;;;;;;;;;;;;;;;;10479429;28;20044;-79
2022/09/20 12:58:17;;;;;;;4.97;1.58;;;;;;;;;;10494156;28;19924;-78
2022/09/20 13:03:28;;;;;;;3.05;1.60;;;;;;;;;;10476723;28;20051;-77
2022/09/20 13:08:31;;;;;;;3.75;1.35;;;;;;;;;;10486617;28;20044;-77
2022/09/20 13:13:40;;;;;;;6.15;1.75;;;;;;;;;;10491088;28;20037;-77
2022/09/20 13:18:42;;;;;;;4.15;1.65;;;;;;;;;;10487092;28;20036;-77
2022/09/20 13:23:48;;;;;;;2.70;1.40;;;;;;;;;;10484414;28;20043;-76
2022/09/20 13:28:54;;;;;;;4.93;1.88;;;;;;;;;;10495101;28;20115;-78
2022/09/20 13:34:11;;;;;;;4.40;1.50;;;;;;;;;;10485833;28;20048;-77
2022/09/20 13:39:23;;;;;;;3.30;1.70;;;;;;;;;;10486421;28;20438;-77
2022/09/20 13:44:27;;;;;;;3.88;1.20;;;;;;;;;;10472281;28;20067;-79
2022/09/20 13:49:31;;;;;;;5.10;1.60;;;;;;;;;;10481316;28;20045;-78
2022/09/20 13:54:34;;;;;;;5.63;1.50;;;;;;;;;;10492455;28;20046;-78
2022/09/20 13:59:43;;;;;;;6.82;1.70;;;;;;;;;;10500810;28;20592;-78
2022/09/20 14:04:46;;;;;;;6.93;1.60;;;;;;;;;;10481989;28;20652;-79
2022/09/20 14:09:49;;;;;;;5.22;1.35;;;;;;;;;;10489129;28;20048;-78
2022/09/20 14:14:54;;;;;;;2.88;1.70;;;;;;;;;;10496892;28;20033;-78
2022/09/20 14:19:57;;;;;;;4.82;1.60;;;;;;;;;;10494741;28;20052;-77
2022/09/20 14:25:01;;;;;;;2.72;0.98;;;;;;;;;;10482128;28;20037;-77
2022/09/20 14:30:06;;;;;;;4.07;1.50;;;;;;;;;;10489589;28;20572;-77
2022/09/20 14:35:16;;;;;;;3.35;1.50;;;;;;;;;;10471562;28;20439;-77
2022/09/20 14:40:21;;;;;;;3.58;1.23;;;;;;;;;;10485919;28;20127;-76
2022/09/20 14:45:27;;;;;;;3.17;1.52;;;;;;;;;;10486285;28;20502;-77
2022/09/20 14:50:31;;;;;;;3.15;1.40;;;;;;;;;;10480013;28;20278;-77
2022/09/20 14:55:36;;;;;;;4.85;1.92;;;;;;;;;;10483042;28;20140;-77
2022/09/20 15:00:49;;;;;;;5.10;1.30;;;;;;;;;;10493933;28;20040;-77
2022/09/20 15:05:52;;;;;;;5.68;1.35;;;;;;;;;;10493388;28;20060;-77
2022/09/20 15:10:55;;;;;;;3.17;1.10;;;;;;;;;;10497985;28;20120;-78
2022/09/20 15:15:59;;;;;;;7.87;1.27;;;;;;;;;;10486714;28;20052;-77
2022/09/20 15:21:03;;;;;;;3.58;1.25;;;;;;;;;;10471514;28;20578;-78
2022/09/20 15:26:06;;;;;;;2.37;1.40;;;;;;;;;;10488201;28;20452;-78
2022/09/20 15:31:08;;;;;;;;;;;;;;;;;;10492217;28;20083;-76
2022/09/20 15:36:13;;;;;;;2.28;1.10;;;;;;;;;;10486068;28;20288;-77
2022/09/20 15:41:16;;;;;;;2.85;0.88;;;;;;;;;;10478886;28;20040;-77
2022/09/20 15:46:20;;;;;;;3.88;1.27;;;;;;;;;;10487817;28;20036;-76
2022/09/20 15:51:25;;;;;;;4.45;1.00;;;;;;;;;;10479689;28;20128;-76
2022/09/20 15:56:29;;;;;;;2.90;1.20;;;;;;;;;;10489508;28;20053;-77
2022/09/20 16:01:42;;;;;;;2.17;1.23;;;;;;;;;;10488283;28;20032;-77
2022/09/20 16:06:48;;;;;;;3.03;1.33;;;;;;;;;;10487410;28;20047;-77
2022/09/20 16:11:57;;;;;;;2.67;0.90;;;;;;;;;;10481853;28;20045;-77
2022/09/20 16:17:00;;;;;;;2.55;1.25;;;;;;;;;;10485330;28;20038;-76
2022/09/20 16:22:04;;;;;;;5.35;1.20;;;;;;;;;;10487351;28;20108;-77
2022/09/20 16:27:08;;;;;;;4.28;1.60;;;;;;;;;;10489531;28;20295;-78
2022/09/20 16:32:11;;;;;;;3.88;1.60;;;;;;;;;;10477122;28;20067;-77
2022/09/20 16:37:15;;;;;;;3.58;1.30;;;;;;;;;;10481266;28;20045;-76
2022/09/20 16:42:19;;;;;;;2.42;1.10;;;;;;;;;;10478694;28;20049;-77
2022/09/20 16:47:23;;;;;;;1.83;1.08;;;;;;;;;;10486410;28;20045;-77
2022/09/20 16:52:27;;;;;;;3.95;1.55;;;;;;;;;;10490295;28;20072;-77
2022/09/20 16:57:30;;;;;;;4.80;2.05;;;;;;;;;;10489122;28;20041;-77
2022/09/20 17:02:35;;;;;;;8.57;1.50;;;;;;;;;;10491931;28;20044;-76
2022/09/20 17:07:39;;;;;;;4.10;1.42;;;;;;;;;;10480228;28;20147;-79
2022/09/20 17:12:45;;;;;;;5.50;1.60;;;;;;;;;;10489165;28;20036;-79
2022/09/20 17:17:48;;;;;;;9.48;1.65;;;;;;;;;;10480817;28;20033;-77
2022/09/20 17:22:53;;;;;;;7.70;1.73;;;;;;;;;;10476185;28;20067;-77
2022/09/20 17:27:56;;;;;;;3.50;1.38;;;;;;;;;;10485725;28;20043;-77
2022/09/20 17:32:59;;;;;;;6.90;1.77;;;;;;;;;;10483581;28;20062;-78
2022/09/20 17:38:03;;;;;;;3.60;1.13;;;;;;;;;;10483090;28;20039;-77
2022/09/20 17:43:05;;;;;;;;;;;;;;;;;;10481529;28;20572;-77
2022/09/20 17:48:09;;;;;;;3.78;1.15;;;;;;;;;;10482984;28;19978;-76
2022/09/20 17:53:13;;;;;;;3.87;1.47;;;;;;;;;;10486230;28;20052;-77
2022/09/20 17:58:16;;;;;;;7.68;1.42;;;;;;;;;;10473380;28;20039;-77
2022/09/20 18:03:18;;;;;;;4.20;1.48;;;;;;;;;;10472723;28;20333;-77
2022/09/20 18:08:23;;;;;;;3.72;1.10;;;;;;;;;;10478650;28;20048;-77
2022/09/20 18:13:26;;;;;;;;;;;;;;;;;;10483671;28;20146;-77
2022/09/20 18:18:30;;;;;;;14.43;4.25;;;;;;;;;;10492161;28;19951;-78
2022/09/20 18:23:37;;;;;;;8.55;2.95;;;;;;;;;;10481997;28;20047;-78
2022/09/20 18:28:39;;;;;;;;;;;;;;;;;;10495338;28;20036;-78
2022/09/20 18:33:42;;;;;;;6.13;2.20;;;;;;;;;;10494982;28;19935;-77
2022/09/20 18:38:46;;;;;;;4.88;2.15;;;;;;;;;;10495081;28;20036;-76
2022/09/20 18:43:48;;;;;;;;;;;;;;;;;;10496482;28;20068;-77
2022/09/20 18:48:51;;;;;;;4.60;1.88;;;;;;;;;;10492333;28;19920;-76
2022/09/20 18:53:56;;;;;;;3.70;1.58;;;;;;;;;;10492591;28;20618;-77
2022/09/20 18:59:00;;;;;;;3.35;1.30;;;;;;;;;;10502570;28;20232;-76
2022/09/20 19:04:08;;;;;;;5.97;2.00;;;;;;;;;;10494713;28;20085;-78
2022/09/20 19:09:18;;;;;;;4.75;1.63;;;;;;;;;;10486480;28;20051;-77
2022/09/20 19:14:24;;;;;;;2.97;1.67;;;;;;;;;;10483471;28;20051;-79
2022/09/20 19:19:33;;;;;;;4.88;1.98;;;;;;;;;;10488626;28;20037;-78
2022/09/20 19:24:49;;;;;;;7.93;3.45;;;;;;;;;;10483669;28;20040;-78
2022/09/20 19:29:52;;;;;;;8.48;3.38;;;;;;;;;;10485270;28;20465;-78
2022/09/20 19:34:56;;;;;;;12.10;4.78;;;;;;;;;;10481855;28;20584;-77
2022/09/20 19:39:58;;;;;;;;;;;;;;;;;;10490386;28;20039;-77
2022/09/20 19:45:07;;;;;;;4.28;1.90;;;;;;;;;;10489979;28;19920;-79
2022/09/20 19:50:15;;;;;;;10.80;3.47;;;;;;;;;;10492273;28;20043;-77
2022/09/20 19:55:19;;;;;;;8.40;3.42;;;;;;;;;;10489648;28;20044;-78
2022/09/20 20:00:23;;;;;;;7.80;3.17;;;;;;;;;;10495347;28;20048;-76
2022/09/20 20:05:28;;;;;;;8.18;3.08;;;;;;;;;;10488915;28;20048;-77
2022/09/20 20:10:37;;;;;;;8.45;2.67;;;;;;;;;;10489277;28;20090;-77
2022/09/20 20:15:44;;;;;;;8.27;3.13;;;;;;;;;;10489522;28;20082;-77
2022/09/20 20:20:48;;;;;;;3.35;1.40;;;;;;;;;;10520619;28;20045;-76
2022/09/20 20:25:58;;;;;;;1.75;1.00;;;;;;;;;;10488192;28;20047;-77
2022/09/20 20:31:11;;;;;;;7.53;2.17;;;;;;;;;;10504906;28;20037;-79
2022/09/20 20:36:15;;;;;;;3.50;1.83;;;;;;;;;;10487380;28;20428;-76
2022/09/20 20:41:20;;;;;;;4.90;1.92;;;;;;;;;;10492246;28;20358;-76
2022/09/20 20:46:24;;;;;;;5.40;2.15;;;;;;;;;;10491653;28;20040;-76
2022/09/20 20:51:27;;;;;;;5.43;2.67;;;;;;;;;;10493041;28;20044;-78
2022/09/20 20:56:30;;;;;;;5.20;1.95;;;;;;;;;;10484976;28;20115;-76
2022/09/20 21:01:35;;;;;;;9.13;2.10;;;;;;;;;;10482859;28;20504;-78
2022/09/20 21:06:39;;;;;;;5.90;2.40;;;;;;;;;;10486844;28;20056;-78
2022/09/20 21:11:45;;;;;;;4.35;1.95;;;;;;;;;;10485374;28;20045;-77
2022/09/20 21:16:51;;;;;;;5.82;2.30;;;;;;;;;;10484304;28;20043;-78
2022/09/20 21:21:54;;;;;;;5.00;2.35;;;;;;;;;;10481818;28;20493;-77
2022/09/20 21:26:57;;;;;;;8.55;2.20;;;;;;;;;;10487609;28;20044;-77
2022/09/20 21:32:01;;;;;;;5.18;2.13;;;;;;;;;;10482690;28;20029;-78
2022/09/20 21:37:04;;;;;;;4.30;1.90;;;;;;;;;;10489739;28;20039;-78
2022/09/20 21:42:07;;;;;;;11.43;2.55;;;;;;;;;;10483743;28;20132;-77
2022/09/20 21:47:18;;;;;;;4.93;2.20;;;;;;;;;;10482130;28;20060;-76
2022/09/20 21:52:21;;;;;;;4.13;2.08;;;;;;;;;;10483004;28;20110;-78
2022/09/20 21:57:24;;;;;;;8.15;2.00;;;;;;;;;;10491820;28;20040;-77
2022/09/20 22:02:28;;;;;;;10.85;4.25;;;;;;;;;;10482416;28;20405;-77
2022/09/20 22:07:30;;;;;;;;;;;;;;;;;;10484384;28;20032;-77
2022/09/20 22:12:33;;;;;;;8.93;4.03;;;;;;;;;;10478313;28;19921;-76
2022/09/20 22:17:37;;;;;;;5.00;2.55;;;;;;;;;;10476334;28;20029;-76
2022/09/20 22:22:40;;;;;;;12.70;4.22;;;;;;;;;;10482590;28;20040;-77
2022/09/20 22:27:43;;;;;;;6.55;2.60;;;;;;;;;;10488597;28;20131;-78
2022/09/20 22:32:47;;;;;;;5.40;2.33;;;;;;;;;;10476042;28;20045;-77
2022/09/20 22:37:49;;;;;;;;;;;;;;;;;;10488781;28;20428;-77
2022/09/20 22:42:52;;;;;;;5.75;2.20;;;;;;;;;;10489827;28;20311;-77
2022/09/20 22:47:56;;;;;;;11.73;4.55;;;;;;;;;;10474410;28;20036;-77
2022/09/20 22:52:59;;;;;;;7.53;2.80;;;;;;;;;;10482673;28;20127;-77
2022/09/20 22:58:01;;;;;;;6.15;2.53;;;;;;;;;;10487794;28;20056;-78
2022/09/20 23:03:06;;;;;;;7.20;2.08;;;;;;;;;;10484392;28;20123;-76
2022/09/20 23:08:08;;;;;;;;;;;;;;;;;;10497810;28;20036;-77
2022/09/20 23:13:11;;;;;;;5.47;2.15;;;;;;;;;;10489489;28;20312;-76
2022/09/20 23:18:15;;;;;;;5.40;2.22;;;;;;;;;;10483351;28;20036;-76
2022/09/20 23:23:22;;;;;;;;;;;;;;;;;;10486910;28;20515;-76
2022/09/20 23:28:25;;;;;;;7.07;2.30;;;;;;;;;;10486228;28;19955;-75
2022/09/20 23:33:29;;;;;;;4.47;2.17;;;;;;;;;;10491100;28;20057;-75
2022/09/20 23:38:33;;;;;;;5.05;1.98;;;;;;;;;;10496355;28;20309;-77
2022/09/20 23:43:36;;;;;;;5.03;2.55;;;;;;;;;;10491265;28;20170;-77
2022/09/20 23:48:41;;;;;;;4.47;2.43;;;;;;;;;;10494389;28;20045;-76
2022/09/20 23:53:44;;;;;;;5.70;2.30;;;;;;;;;;10479693;28;20123;-76
2022/09/20 23:58:47;;;;;;;5.18;2.50;;;;;;;;;;10481218;28;20047;-76
